FAPE

Port Elizabeth Airport

Port Elizabeth, South Africa
METAR FAPE 211500Z 07007KT 040V100 CAVOK 21/15 Q1013 NOSIG
Observed Flight Rules
Apr-21 @ 15:00 UTC (40 minutes ago) Visual Flight Rules
Wind Visibility Clouds
70° at 7 knots 10,000+ meters
  • Clear skies
Temperatures Readings
Current 21°C / 70°F
Dewpoint 15°C / 59°F
Humidity 69%
Altimeter 29.91" Hg
Pressure 1013 hPa
Elevation 60
METAR FAPE 211500Z 07007KT 040V100 CAVOK 21/15 Q1013 NOSIG
Observed Flight Rules
Apr-21 @ 15:00 UTC
(40 minutes ago)
VFR
Wind Visibility
70° at 7 knots 10,000+ meters
Clouds
  • Clear skies
Temperature Dewpoint
21°C / 70°F 15°C / 59°F
Humidity Altimeter Pressure
69% 29.91" Hg 1013 hPa